Flight Track Log - Related Links

Times and Time Zones

All times are in EDT time to prevent confusion due to time zone crossing. See the AAL1012 flight status page for this flight to view local times or setup timezone preferences in your user account.


Time Position Orientation Groundspeed Altitude Reporting Facility
EDT Latitude Longitude Course Direction KTS MPH feet Rate Location/Type
Sun 03:15:57 PM 25.8030 -80.2630 90° East 160 184 800  Level FlightAware ADS-B
Sun 03:16:22 PM 25.8050 -80.2410 84° East 168 193 1,700 1,636 Climbing FlightAware ADS-B
Sun 03:16:52 PM 25.8090 -80.2130 81° East 198 228 2,300 1,067 Climbing FlightAware ADS-B
Sun 03:17:07 PM 25.8110 -80.1980 82° East 217 250 2,500 1,500 Climbing FlightAware ADS-B
Sun 03:17:32 PM 25.8180 -80.1700 74° East 235 270 3,300 2,250 Climbing FlightAware ADS-B
Sun 03:17:47 PM 25.8310 -80.1580 40° Northeast 239 275 4,000 2,200 Climbing FlightAware ADS-B
Sun 03:18:02 PM 25.8460 -80.1540 13° North 256 295 4,400 1,950 Climbing FlightAware ADS-B
Sun 03:18:27 PM 25.8780 -80.1620 347° North 271 312 5,300 2,250 Climbing FlightAware ADS-B
Sun 03:18:42 PM 25.8970 -80.1680 344° North 268 308 5,900 1,733 Climbing FlightAware ADS-B
Sun 03:19:12 PM 25.9330 -80.1810 342° North 275 316 6,600 1,200 Climbing FlightAware ADS-B
Sun 03:19:37 PM 25.9630 -80.1930 340° North 276 318 7,000 1,200 Climbing FlightAware ADS-B
Sun 03:19:52 PM 25.9780 -80.2060 322° Northwest 282 325 7,400 2,200 Climbing FlightAware ADS-B
Sun 03:20:07 PM 25.9880 -80.2230 303° West 283 326 8,100 2,800 Climbing FlightAware ADS-B
Sun 03:20:22 PM 25.9950 -80.2420 292° West 282 325 8,800 2,914 Climbing FlightAware ADS-B
Sun 03:20:42 PM 26.0070 -80.2720 294° West 287 330 9,800 2,229 Climbing FlightAware ADS-B
Sun 03:21:32 PM 26.0340 -80.3340 296° West 308 354 11,400 2,304 Climbing FlightAware ADS-B
Sun 03:22:47 PM 26.0850 -80.4580 295° West 342 394 14,600 2,700 Climbing FlightAware ADS-B
Sun 03:23:32 PM 26.1150 -80.5300 295° West 351 404 16,800 2,471 Climbing FlightAware ADS-B
Sun 03:24:12 PM 26.1430 -80.5970 295° West 360 414 18,100 2,100 Climbing FlightAware ADS-B
Sun 03:24:52 PM 26.1740 -80.6650 297° West 373 429 19,600 2,118 Climbing FlightAware ADS-B
Sun 03:25:37 PM 26.2080 -80.7430 296° West 382 440 21,100 1,694 Climbing FlightAware ADS-B
Sun 03:26:17 PM 26.2410 -80.8160 297° West 390 449 22,000 635 Climbing FlightAware ADS-B
Sun 03:27:02 PM 26.2770 -80.8950 297° West 391 450 22,000  Level FlightAware ADS-B
Sun 03:27:27 PM 26.3030 -80.9390 303° West 394 453 22,000 277 Level FlightAware ADS-B
Sun 03:28:07 PM 26.3640 -80.9810 328° Northwest 392 451 22,300 565 Climbing FlightAware ADS-B
Sun 03:28:52 PM 26.4440 -80.9980 349° North 404 465 22,800 667 Climbing FlightAware ADS-B
Sun 03:29:37 PM 26.5290 -81.0130 351° North 406 467 23,300 1,200 Climbing FlightAware ADS-B
Sun 03:30:17 PM 26.6000 -81.0240 352° North 403 464 24,500 1,950 Climbing FlightAware ADS-B
Sun 03:30:57 PM 26.6820 -81.0370 352° North 406 467 25,900 1,976 Climbing FlightAware ADS-B
Sun 03:31:42 PM 26.7640 -81.0500 352° North 406 467 27,300 1,886 Climbing FlightAware ADS-B
Sun 03:32:07 PM 26.8150 -81.0580 352° North 409 471 28,100 1,629 Climbing FlightAware ADS-B
Sun 03:32:52 PM 26.9000 -81.0720 352° North 423 487 29,200 1,341 Climbing FlightAware ADS-B
Sun 03:33:32 PM 26.9720 -81.0830 352° North 419 482 30,000 640 Climbing FlightAware ADS-B
Sun 03:34:07 PM 27.0460 -81.0950 352° North 420 483 30,000  Level FlightAware ADS-B
Sun 03:34:57 PM 27.1380 -81.1370 338° Northwest 409 471 30,000  Level FlightAware ADS-B
Sun 03:35:32 PM 27.1930 -81.1650 336° Northwest 410 472 30,000 565 Level FlightAware ADS-B
Sun 03:36:22 PM 27.2860 -81.2120 336° Northwest 413 475 30,800 1,333 Climbing FlightAware ADS-B
Sun 03:37:02 PM 27.3550 -81.2470 336° Northwest 409 471 32,000 1,650 Climbing FlightAware ADS-B
Sun 03:37:42 PM 27.4240 -81.2830 335° Northwest 406 467 33,000 706 Climbing FlightAware ADS-B
Sun 03:38:27 PM 27.5030 -81.3240 335° Northwest 408 470 33,000  Level FlightAware ADS-B
Sun 03:39:12 PM 27.5810 -81.3550 341° North 417 480 33,000  Level FlightAware ADS-B
Sun 03:39:52 PM 27.6570 -81.3670 352° North 432 497 33,000  Level FlightAware ADS-B
Sun 03:40:22 PM 27.7150 -81.3610 North 441 507 33,000  Level FlightAware ADS-B
Sun 03:41:02 PM 27.7960 -81.3490 North 438 504 33,000  Level FlightAware ADS-B
Sun 03:41:57 PM 27.9100 -81.3480 360° North 432 497 33,000  Level FlightAware ADS-B
Sun 03:42:37 PM 27.9890 -81.3460 North 432 497 33,000  Level FlightAware ADS-B
Sun 03:43:12 PM 28.0630 -81.3440 North 431 496 33,000  Level FlightAware ADS-B
Sun 03:44:02 PM 28.1610 -81.3430 North 438 504 33,000 267 Level FlightAware ADS-B
Sun 03:44:42 PM 28.2480 -81.3410 North 433 498 33,400 1,129 Climbing FlightAware ADS-B
Sun 03:45:27 PM 28.3410 -81.3390 North 427 491 34,600 1,129 Climbing FlightAware ADS-B
Sun 03:46:07 PM 28.4200 -81.3370 North 431 496 35,000 282 Climbing FlightAware ADS-B
Sun 03:46:52 PM 28.5030 -81.3360 North 431 496 35,000  Level FlightAware ADS-B
Sun 03:47:32 PM 28.5820 -81.3390 358° North 423 487 35,000  Level FlightAware ADS-B
Sun 03:48:17 PM 28.6690 -81.3470 355° North 423 487 35,000  Level FlightAware ADS-B
Sun 03:48:57 PM 28.7420 -81.3540 355° North 417 480 35,000  Level FlightAware ADS-B
Sun 03:49:37 PM 28.8260 -81.3620 355° North 419 482 35,000  Level FlightAware ADS-B
Sun 03:50:22 PM 28.9140 -81.3710 355° North 422 486 35,000  Level FlightAware ADS-B
Sun 03:51:02 PM 28.9930 -81.3780 356° North 422 486 35,000  Level FlightAware ADS-B
Sun 03:51:47 PM 29.0820 -81.3870 355° North 422 486 35,000  Level FlightAware ADS-B
Sun 03:52:17 PM 29.1440 -81.3930 355° North 423 487 35,000  Level FlightAware ADS-B
Sun 03:53:07 PM 29.2430 -81.4030 355° North 433 498 35,000  Level FlightAware ADS-B
Sun 03:53:47 PM 29.3200 -81.4100 355° North 433 498 35,000  Level FlightAware ADS-B
Sun 03:54:32 PM 29.4080 -81.4190 355° North 433 498 35,000  Level FlightAware ADS-B
Sun 03:55:17 PM 29.5060 -81.4280 355° North 434 499 35,000  Level FlightAware ADS-B
Sun 03:55:57 PM 29.5820 -81.4350 355° North 434 499 35,000  Level FlightAware ADS-B
Sun 03:56:32 PM 29.6460 -81.4420 355° North 434 499 35,000  Level FlightAware ADS-B
Sun 03:57:22 PM 29.7310 -81.4510 355° North 434 499 35,000  Level FlightAware ADS-B
Sun 03:58:02 PM 29.7990 -81.4570 356° North 434 499 35,000  Level FlightAware ADS-B
Sun 03:58:32 PM 29.8500 -81.4630 354° North 434 499 35,000  Level FlightAware ADS-B
Sun 03:59:12 PM 29.9180 -81.4690 356° North 434 499 35,000  Level FlightAware ADS-B
Sun 03:59:52 PM 29.9870 -81.4760 355° North 434 499 35,000  Level FlightAware ADS-B
Sun 04:00:32 PM 30.0550 -81.4830 355° North 434 499 35,000  Level FlightAware ADS-B
Sun 04:01:22 PM 30.1400 -81.4920 355° North 434 499 35,000  Level FlightAware ADS-B
Sun 04:02:02 PM 30.2080 -81.4990 355° North 434 499 35,000  Level FlightAware ADS-B
Sun 04:02:42 PM 30.2760 -81.5060 355° North 434 499 35,000  Level FlightAware ADS-B
Sun 04:03:22 PM 30.3440 -81.5120 356° North 434 499 35,000  Level FlightAware ADS-B
Sun 04:03:52 PM 30.3950 -81.5180 354° North 434 499 35,000  Level FlightAware ADS-B
Sun 04:04:32 PM 30.4630 -81.5240 356° North 434 499 35,000  Level FlightAware ADS-B
Sun 04:05:12 PM 30.5310 -81.5310 355° North 434 499 35,000  Level FlightAware ADS-B
Sun 04:05:52 PM 30.5990 -81.5380 355° North 434 499 35,000 1,481 Level FlightAware ADS-B
Sun 04:06:33 PM 30.9100 -81.4639 355° North 459 528 37,000 1,188 Climbing Jacksonville Center
Sun 04:07:33 PM 31.0392 -81.4547 North 464 534 37,000  Level Jacksonville Center
Sun 04:13:07 PM 31.7820 -81.2960 North 486 559 37,000  Level FlightAware ADS-B
Sun 04:13:57 PM 31.8870 -81.2680 13° North 486 559 37,000  Level FlightAware ADS-B
Sun 04:14:37 PM 31.9780 -81.2440 13° North 485 558 37,000  Level FlightAware ADS-B
Sun 04:15:17 PM 32.0640 -81.2210 13° North 485 558 37,000  Level FlightAware ADS-B
Sun 04:15:57 PM 32.1520 -81.1900 17° North 495 570 37,000  Level FlightAware ADS-B
Sun 04:16:52 PM 32.2500 -81.1260 29° Northeast 505 581 37,000  Level FlightAware ADS-B
Sun 04:17:32 PM 32.3190 -81.0790 30° Northeast 505 581 37,000  Level FlightAware ADS-B
Sun 04:18:22 PM 32.4320 -80.9930 33° Northeast 506 582 37,000  Level FlightAware ADS-B
Sun 04:21:27 PM 32.8080 -80.7200 31° Northeast 507 583 37,000  Level FlightAware ADS-B
Sun 04:22:33 PM 32.9311 -80.6306 31° Northeast 496 571 37,000  Level Jacksonville Center
Sun 04:23:33 PM 33.0508 -80.5456 31° Northeast 491 565 37,000 -50 Level Jacksonville Center
Sun 04:24:33 PM 33.1722 -80.4606 30° Northeast 491 565 36,900  Descending Jacksonville Center
Sun 04:25:33 PM 33.2917 -80.3703 32° Northeast 497 572 37,000 16 Climbing Jacksonville Center
Sun 04:30:57 PM 33.9320 -79.8850 32° Northeast 507 583 37,000  Level FlightAware ADS-B
Sun 04:31:37 PM 34.0000 -79.8350 31° Northeast 507 583 37,000  Level FlightAware ADS-B
Sun 04:32:17 PM 34.0670 -79.7830 33° Northeast 507 583 37,000  Level FlightAware ADS-B
Sun 04:32:57 PM 34.1350 -79.7320 32° Northeast 507 583 37,000  Level FlightAware ADS-B
Sun 04:33:37 PM 34.2030 -79.6810 32° Northeast 507 583 37,000  Level FlightAware ADS-B
Sun 04:34:07 PM 34.2530 -79.6430 32° Northeast 507 583 37,000  Level FlightAware ADS-B
Sun 04:34:57 PM 34.3380 -79.5790 32° Northeast 507 583 37,000  Level FlightAware ADS-B
Sun 04:35:37 PM 34.4050 -79.5280 32° Northeast 507 583 37,000  Level FlightAware ADS-B
Sun 04:36:17 PM 34.4730 -79.4770 32° Northeast 507 583 37,000  Level FlightAware ADS-B
Sun 04:36:57 PM 34.5410 -79.4250 32° Northeast 507 583 37,000  Level FlightAware ADS-B
Sun 04:37:37 PM 34.6080 -79.3740 32° Northeast 507 583 37,000  Level FlightAware ADS-B
Sun 04:38:27 PM 34.6930 -79.3100 32° Northeast 507 583 37,000  Level FlightAware ADS-B
Sun 04:39:07 PM 34.7600 -79.2580 33° Northeast 507 583 37,000  Level FlightAware ADS-B
Sun 04:39:47 PM 34.8280 -79.2070 32° Northeast 507 583 37,000  Level FlightAware ADS-B
Sun 04:40:27 PM 34.8960 -79.1550 32° Northeast 507 583 37,000 -71 Level FlightAware ADS-B
Sun 04:42:37 PM 35.4220 -79.0270 11° North 507 583 36,800 -73 Descending FlightAware ADS-B
Sun 04:43:12 PM 35.4880 -78.9930 23° Northeast 507 583 36,800 -565 Level FlightAware ADS-B
Sun 04:44:02 PM 35.6020 -78.9300 24° Northeast 510 587 36,000 -533 Descending FlightAware ADS-B
Sun 04:44:42 PM 35.6910 -78.8820 24° Northeast 510 587 36,000  Level FlightAware ADS-B
Sun 04:45:27 PM 35.7880 -78.8300 24° Northeast 510 587 36,000  Level FlightAware ADS-B
Sun 04:46:07 PM 35.8760 -78.7820 24° Northeast 511 588 36,000  Level FlightAware ADS-B
Sun 04:46:52 PM 35.9710 -78.7280 25° Northeast 513 590 36,000  Level FlightAware ADS-B
Sun 04:47:27 PM 36.0490 -78.6840 25° Northeast 513 590 36,000  Level FlightAware ADS-B
Sun 04:48:12 PM 36.1440 -78.6300 25° Northeast 514 592 36,000  Level FlightAware ADS-B
Sun 04:48:57 PM 36.2400 -78.5750 25° Northeast 515 593 36,000  Level FlightAware ADS-B
Sun 04:49:37 PM 36.3290 -78.5250 24° Northeast 516 594 36,000  Level FlightAware ADS-B
Sun 04:50:27 PM 36.4370 -78.4630 25° Northeast 517 595 36,000  Level FlightAware ADS-B
Sun 04:51:17 PM 36.5370 -78.4070 24° Northeast 517 595 36,000  Level FlightAware ADS-B
Sun 04:52:17 PM 36.6690 -78.3310 25° Northeast 518 596 36,000  Level FlightAware ADS-B
Sun 04:52:57 PM 36.7440 -78.2900 24° Northeast 518 596 36,000  Level FlightAware ADS-B
Sun 04:53:37 PM 36.8180 -78.2480 24° Northeast 518 596 36,000  Level FlightAware ADS-B
Sun 04:54:17 PM 36.8920 -78.2070 24° Northeast 518 596 36,000  Level FlightAware ADS-B
Sun 04:55:07 PM 36.9850 -78.1550 24° Northeast 518 596 36,000  Level FlightAware ADS-B
Sun 04:56:42 PM 37.2620 -78.1230 North 503 579 36,000 -188 Level FlightAware ADS-B
Sun 04:57:47 PM 37.3880 -77.9940 39° Northeast 527 606 35,500 -816 Descending FlightAware ADS-B
Sun 04:58:47 PM 37.5030 -77.8810 38° Northeast 526 605 34,300 -783 Descending FlightAware ADS-B
Sun 05:03:32 PM 38.0370 -77.3650 37° Northeast 509 586 31,000 -702 Descending FlightAware ADS-B
Sun 05:04:12 PM 38.1293 -77.2806 36° Northeast 510 587 30,500 -960 Descending FlightAware ADS-B
Sun 05:04:47 PM 38.1870 -77.2270 36° Northeast 504 580 29,800 -1,404 Descending FlightAware ADS-B
Sun 05:04:59 PM 38.2180 -77.1988 36° Northeast 510 587 29,400 -1,404 Descending FlightAware ADS-B
Sun 05:05:34 PM 38.2814 -77.1403 36° Northeast 492 566 28,700 -1,235 Descending FlightAware ADS-B
Sun 05:06:07 PM 38.3419 -77.0843 36° Northeast 484 557 28,000 -1,342 Descending FlightAware ADS-B
Sun 05:06:50 PM 38.4193 -77.0126 36° Northeast 477 549 27,000 -1,350 Descending FlightAware ADS-B
Sun 05:07:27 PM 38.4837 -76.9527 36° Northeast 469 540 26,200 -1,254 Descending FlightAware ADS-B
Sun 05:07:57 PM 38.5374 -76.9025 36° Northeast 467 537 25,600 -1,200 Descending FlightAware ADS-B
Sun 05:08:47 PM 38.6230 -76.8226 36° Northeast 467 537 24,600 -1,200 Descending FlightAware ADS-B
Sun 05:09:17 PM 38.6746 -76.7732 37° Northeast 454 522 24,000 -1,216 Descending FlightAware ADS-B
Sun 05:10:01 PM 38.7203 -76.6751 59° Northeast 453 521 23,100 -1,325 Descending FlightAware ADS-B
Sun 05:10:34 PM 38.7383 -76.5891 75° East 443 510 22,300 -1,500 Descending FlightAware ADS-B
Sun 05:11:05 PM 38.7543 -76.5118 75° East 441 507 21,500 -1,524 Descending FlightAware ADS-B
Sun 05:11:37 PM 38.7708 -76.4321 75° East 437 503 20,700 -1,905 Descending FlightAware ADS-B
Sun 05:12:08 PM 38.7869 -76.3541 75° East 434 499 19,500 -2,262 Descending FlightAware ADS-B
Sun 05:12:38 PM 38.8021 -76.2800 75° East 429 494 18,400 -2,164 Descending FlightAware ADS-B
Sun 05:13:09 PM 38.8177 -76.2042 75° East 422 486 17,300 -2,123 Descending FlightAware ADS-B
Sun 05:13:43 PM 38.8342 -76.1245 75° East 412 474 16,100 -2,175 Descending FlightAware ADS-B
Sun 05:14:29 PM 38.8562 -76.0163 75° East 411 473 14,400 -1,291 Descending FlightAware ADS-B
Sun 05:15:02 PM 38.8702 -75.9460 76° East 366 421 14,400 -95 Level FlightAware ADS-B
Sun 05:15:32 PM 38.8828 -75.8837 75° East 361 415 14,300 -558 Descending FlightAware ADS-B
Sun 05:15:45 PM 38.8900 -75.8576 70° East 359 413 14,000 -1,565 Descending FlightAware ADS-B
Sun 05:15:55 PM 38.8987 -75.8389 59° Northeast 357 411 13,700 -1,371 Descending FlightAware ADS-B
Sun 05:16:20 PM 38.9279 -75.8038 43° Northeast 355 409 13,200 -1,241 Descending FlightAware ADS-B
Sun 05:16:53 PM 38.9722 -75.7622 36° Northeast 352 405 12,500 -1,254 Descending FlightAware ADS-B
Sun 05:17:27 PM 39.0161 -75.7204 36° Northeast 344 396 11,800 -1,164 Descending FlightAware ADS-B
Sun 05:18:00 PM 39.0591 -75.6850 33° Northeast 336 387 11,200 -1,091 Descending FlightAware ADS-B
Sun 05:18:11 PM 39.0748 -75.6783 18° North 332 382 11,000 -1,200 Descending FlightAware ADS-B
Sun 05:18:25 PM 39.0965 -75.6738 North 329 379 10,700 -1,043 Descending FlightAware ADS-B
Sun 05:18:57 PM 39.1449 -75.6687 North 324 373 10,200 -1,038 Descending FlightAware ADS-B
Sun 05:19:17 PM 39.1744 -75.6655 North 323 372 9,800 -1,135 Descending FlightAware ADS-B
Sun 05:19:34 PM 39.1990 -75.6628 North 314 361 9,500 -686 Descending FlightAware ADS-B
Sun 05:19:52 PM 39.2243 -75.6602 North 300 345 9,400 -182 Descending FlightAware ADS-B
Sun 05:20:07 PM 39.2450 -75.6579 North 293 337 9,400  Level FlightAware ADS-B
Sun 05:20:23 PM 39.2661 -75.6556 North 288 331 9,400  Level FlightAware ADS-B
Sun 05:20:32 PM 39.2773 -75.6530 10° North 288 331 9,400 -231 Level FlightAware ADS-B
Sun 05:20:49 PM 39.2994 -75.6458 14° North 287 330 9,300 -480 Descending FlightAware ADS-B
Sun 05:20:57 PM 39.3108 -75.6437 North 287 330 9,200 -923 Descending FlightAware ADS-B
Sun 05:21:02 PM 39.3171 -75.6431 North 287 330 9,100 -800 Descending FlightAware ADS-B
Sun 05:21:12 PM 39.3300 -75.6430 360° North 284 327 9,000 -1,154 Descending FlightAware ADS-B
Sun 05:21:28 PM 39.3513 -75.6434 359° North 281 323 8,600 -1,371 Descending FlightAware ADS-B
Sun 05:21:47 PM 39.3752 -75.6439 359° North 276 318 8,200 -1,167 Descending FlightAware ADS-B
Sun 05:22:04 PM 39.3968 -75.6443 359° North 272 313 7,900 -1,371 Descending FlightAware ADS-B
Sun 05:22:22 PM 39.4191 -75.6450 359° North 271 312 7,400 -1,622 Descending FlightAware ADS-B
Sun 05:22:41 PM 39.4437 -75.6458 359° North 272 313 6,900 -1,385 Descending FlightAware ADS-B
Sun 05:23:01 PM 39.4690 -75.6467 358° North 270 311 6,500 -833 Descending FlightAware ADS-B
Sun 05:23:17 PM 39.4879 -75.6475 358° North 267 307 6,400 -581 Descending FlightAware ADS-B
Sun 05:23:32 PM 39.5072 -75.6483 358° North 266 306 6,200 -1,200 Descending FlightAware ADS-B
Sun 05:23:52 PM 39.5310 -75.6460 North 265 305 5,700 -1,500 Descending FlightAware ADS-B
Sun 05:23:56 PM 39.5361 -75.6434 21° North 264 304 5,600 -750 Descending FlightAware ADS-B
Sun 05:24:00 PM 39.5403 -75.6405 28° Northeast 262 302 5,600 -600 Level FlightAware ADS-B
Sun 05:24:06 PM 39.5464 -75.6354 33° Northeast 261 300 5,500 -522 Descending FlightAware ADS-B
Sun 05:24:23 PM 39.5625 -75.6207 35° Northeast 252 290 5,400 -154 Descending FlightAware ADS-B
Sun 05:24:45 PM 39.5832 -75.6029 34° Northeast 241 277 5,400  Level FlightAware ADS-B
Sun 05:25:01 PM 39.5976 -75.5907 33° Northeast 238 274 5,400  Level FlightAware ADS-B
Sun 05:25:21 PM 39.6167 -75.5748 33° Northeast 239 275 5,400 -439 Level FlightAware ADS-B
Sun 05:25:42 PM 39.6359 -75.5586 33° Northeast 235 270 5,100 -789 Descending FlightAware ADS-B
Sun 05:25:59 PM 39.6506 -75.5460 33° Northeast 231 266 4,900 -938 Descending FlightAware ADS-B
Sun 05:26:14 PM 39.6641 -75.5343 34° Northeast 229 264 4,600 -1,200 Descending FlightAware ADS-B
Sun 05:26:29 PM 39.6777 -75.5229 33° Northeast 229 264 4,300 -1,161 Descending FlightAware ADS-B
Sun 05:26:45 PM 39.6917 -75.5112 33° Northeast 230 265 4,000 -1,161 Descending FlightAware ADS-B
Sun 05:27:00 PM 39.7053 -75.4997 33° Northeast 228 262 3,700 -1,200 Descending FlightAware ADS-B
Sun 05:27:15 PM 39.7180 -75.4890 33° Northeast 228 262 3,400 -1,161 Descending FlightAware ADS-B
Sun 05:27:31 PM 39.7328 -75.4767 33° Northeast 225 259 3,100 -968 Descending FlightAware ADS-B
Sun 05:27:46 PM 39.7458 -75.4656 33° Northeast 222 255 2,900 -968 Descending FlightAware ADS-B
Sun 05:28:02 PM 39.7591 -75.4542 33° Northeast 221 254 2,600 -938 Descending FlightAware ADS-B
Sun 05:28:18 PM 39.7726 -75.4426 33° Northeast 217 250 2,400 -387 Descending FlightAware ADS-B
Sun 05:28:33 PM 39.7851 -75.4323 32° Northeast 206 237 2,400 -375 Level FlightAware ADS-B
Sun 05:28:50 PM 39.7980 -75.4212 33° Northeast 199 229 2,200 -938 Descending FlightAware ADS-B
Sun 05:29:05 PM 39.8096 -75.4114 33° Northeast 196 226 1,900 -1,200 Descending FlightAware ADS-B
Sun 05:29:20 PM 39.8212 -75.4015 33° Northeast 195 224 1,600 -1,125 Descending FlightAware ADS-B
Sun 05:29:37 PM 39.8337 -75.3909 33° Northeast 193 222 1,300 -857 Descending FlightAware ADS-B
Sun 05:29:41 PM 39.8368 -75.3876 39° Northeast 192 221 1,300 -750 Level FlightAware ADS-B
Sun 05:29:45 PM 39.8389 -75.3846 48° Northeast 190 219 1,200 -667 Descending FlightAware ADS-B
Sun 05:29:50 PM 39.8410 -75.3801 59° Northeast 188 216 1,200 -667 Level FlightAware ADS-B
Sun 05:29:54 PM 39.8422 -75.3756 71° East 186 214 1,100 -1,125 Descending FlightAware ADS-B
Sun 05:30:06 PM 39.8446 -75.3630 76° East 180 207 900 -1,043 Descending FlightAware ADS-B
Sun 05:30:17 PM 39.8460 -75.3519 81° East 169 194 700 -1,071 Descending FlightAware ADS-B
Sun 05:30:34 PM 39.8486 -75.3356 78° East 149 171 400 -909 Descending FlightAware ADS-B
Sun 05:30:50 PM 39.8513 -75.3223 75° East 141 162 200 -750 Descending FlightAware ADS-B
Sun 05:31:06 PM 39.8540 -75.3096 75° East 136 157 -750 Descending FlightAware ADS-B
Sun 05:31:47 PM 39.8580 -75.2890 76° East 135 155  Level FlightAware ADS-B
Sun 05:32:12 PM 39.8620 -75.2700 75° East 135 155  Level FlightAware ADS-B

Login

Don't have an account? Register now (free) for customized features, flight alerts, and more!